AirNav   ATP
 
 376 users online  

4IS3 University of Chicago Hospitals Heliport
Chicago, Illinois, USA

GOING TO CHICAGO?


FAA INFORMATION EFFECTIVE 29 MARCH 2018

Location

FAA Identifier: 4IS3
Lat/Long: 41-47-27.3700N / 087-36-19.4300W
41-47.456167N / 087-36.323833W
41.7909361 / -87.6053972
(estimated)
Elevation: 665 ft. / 203 m (estimated)
Variation: 01W (1984)
Time zone: UTC -5 (UTC -6 during Standard Time)
Zip code: 60637

Heliport Operations

Heliport use: Private use, MEDICAL USE.
Activation date: 02/1984
Control tower: no
ARTCC: CHICAGO CENTER
FSS: KANKAKEE FLIGHT SERVICE STATION
Attendance: CONTINUOUS
Wind indicator: yes
Segmented circle: no
Beacon: white-green-yellow (heliport)
24 HRS

Heliport Communications

WX ASOS at MDW (7 nm W): PHONE 773-884-4424
WX AWOS-3PT at GYY (13 nm SE): 134.575 (219-944-0010)
WX AWOS-3 at IGQ (16 nm S): 119.275 (708-895-9526)
WX ASOS at ORD (17 nm NW): PHONE 773-462-0118
  • FREQ 129.475 AVBL FOR MEDICAL CNTR.

Nearby radio navigation aids

VOR radial/distance  VOR name  Freq  Var
CGTr353/16.9CHICAGO HEIGHTS VORTAC114.2002E
ORDr129/17.8CHICAGO O'HARE VOR/DME113.9002E
OBKr151/30.1NORTHBROOK VOR/DME113.0002W
EONr013/32.4PEOTONE VORTAC113.2002E
DPAr098/33.8DUPAGE VOR/DME108.4002E
JOTr063/35.2JOLIET VOR/DME112.3002E

Heliport Services

Runway Information

Helipad H1

Dimensions: 38 x 30 ft. / 12 x 9 m
Surface: pierced steel planking
ROOFTOP.
Runway edge lights: HELI LGTS WITH PERIMETER LGTS.
Latitude: 41-47.345500N
Longitude: 087-36.219500W
Elevation: 665.0 ft.
Traffic pattern: leftleft

Helipad H2

Dimensions: 50 x 50 ft. / 15 x 15 m
Surface: mats
Latitude: 41-47.458167N
Longitude: 087-36.325500W
Elevation: 665.0 ft.
Traffic pattern: leftleft

Heliport Ownership and Management from official FAA records

Ownership: Privately-owned
Owner: UNIV CHICAGO HOSPITALS
5841 S MARYLAND, MC 0952, RM C-38
CHICAGO, IL 60637
Phone 312-702-3222
Manager: DR. IRA BLUMEN
5841 S MARYLAND, MC 0952, RM C-38
CHICAGO, IL 60637
Phone 773-702-3222

Heliport Operational Statistics

Aircraft based on the field: 1
Helicopters: 1
    

Instrument Procedures

There are no published instrument procedures at 4IS3.

Some nearby airports with instrument procedures:

KMDW - Chicago Midway International Airport (7 nm W)
KGYY - Gary/Chicago International Airport (13 nm SE)
KIGQ - Lansing Municipal Airport (16 nm S)
KORD - Chicago O'Hare International Airport (17 nm NW)
05C - Griffith-Merrillville Airport (19 nm SE)
 
Loc | Ops | Rwys | IFR | FBO | Links
Com | Nav | Svcs | Stats | Notes

AirNav Hotels Sweepstakes
 
Area around 4IS3 (University of Chicago Hospitals Heliport)
 
Road maps at: MapQuest Bing Google
 
Aerial photo
No photo
 
Sectional chart

 
Airport distance calculator
Flying to University of Chicago Hospitals Heliport? Find the distance to fly.

From to 4IS3

Sunrise and sunset
Times for 24-Apr-2018
 Local
(UTC-5)
 Zulu
(UTC)
Morning civil twilight05:2810:28
Sunrise05:5810:58
Sunset19:4000:40
Evening civil twilight20:0901:09

Current date and time
Zulu (UTC)  24-Apr-2018 06:44:45
Local (UTC-5)  24-Apr-2018 01:44:45
 
METAR
4IS3 SuperAWOS
240615Z AUTO 06004KT 10SM 09/04 A3010
KMDW 
6nm W 
240608Z 04005KT 10SM -DZ SCT014 OVC022 11/03 A3008 RMK AO2 P0000 T01060028
KGYY 
13nm SE 
240635Z AUTO 00000KT 10SM -RA SCT027 07/04 A3008 RMK AO2 T00710042
KIGQ 
16nm S 
240635Z AUTO 00000KT 10SM -RA BKN009 BKN016 OVC027 07/07 A3007 RMK AO2 T00730068
KORD 
19nm NW 
240605Z 08003KT 10SM BKN020 BKN075 OVC090 09/00 A3008 RMK AO2 T00940000
TAF
KMDW 
6nm W 
240536Z 2406/2512 04006KT P6SM -DZ SCT010 BKN012 OVC030 FM240800 03005KT P6SM VCSH SCT008 OVC012 TEMPO 2410/2413 6SM -RA BR SCT007 OVC010 FM241600 03008KT P6SM OVC015 FM242100 02013KT P6SM BKN020 OVC090 FM250400 01016G25KT P6SM FEW020 SCT040 BKN100 FM251000 01015G23KT P6SM SKC
KGYY 
13nm SE 
240536Z 2406/2506 03005KT P6SM VCSH BKN025 OVC035 TEMPO 2406/2408 -RA BKN015 OVC025 FM240800 04005KT P6SM VCSH BKN008 OVC012 TEMPO 2410/2413 6SM -RA BR OVC008 FM241700 36010KT P6SM VCSH SCT008 OVC014 FM250500 35016G25KT P6SM FEW020 BKN035 BKN100
KORD 
19nm NW 
240536Z 2406/2512 03006KT P6SM VCSH SCT025 OVC070 FM240700 04006KT P6SM VCSH BKN025 OVC035 FM240900 03005KT P6SM VCSH SCT008 OVC012 FM241500 03008KT P6SM OVC015 FM242000 02013KT P6SM SCT025 OVC090 FM250300 01016G25KT P6SM FEW020 SCT040 BKN100 FM250900 01014G22KT P6SM SKC
NOTAMs
Click for the latest NOTAMs
NOTAMs are issued by the DoD/FAA and will open in a separate window not controlled by AirNav.

 

 
 

Would you like to see your business listed on this page?

 If your business provides an interesting product or service to pilots, flight crews, aircraft, or users of the University of Chicago Hospitals Heliport, you should consider listing it here.  To start the listing process, click on the button below
 
Add a business
 

Other Pages about University of Chicago Hospitals Heliport

Update a link
 
Copyright © AirNav, LLC. All rights reserved. Privacy Policy  Contact